createdAt,value
2023-03-23T15:58:47.656Z,21.88
2023-03-23T16:01:18.617Z,19.20
2023-03-23T16:03:48.737Z,18.98
2023-03-23T16:06:24.096Z,26.88
2023-03-23T16:08:54.782Z,27.30
2023-03-23T16:11:24.130Z,18.20
2023-03-23T16:13:52.512Z,21.67
2023-03-23T16:16:24.512Z,29.27
2023-03-23T16:18:52.983Z,26.63
2023-03-23T16:21:22.388Z,21.52
2023-03-23T16:23:50.821Z,28.88
2023-03-23T16:26:19.468Z,26.08
2023-03-23T16:28:47.867Z,21.20
2023-03-23T16:31:16.461Z,26.05
2023-03-23T16:33:46.247Z,36.80
2023-03-23T16:36:15.325Z,31.80
2023-03-23T16:38:49.249Z,23.50
2023-03-23T16:41:18.554Z,25.15
2023-03-23T16:43:47.032Z,31.33
2023-03-23T16:46:15.651Z,28.50
2023-03-23T16:48:44.114Z,20.35
2023-03-23T16:51:13.948Z,24.35
2023-03-23T16:53:42.355Z,32.13
2023-03-23T16:56:10.846Z,26.13
2023-03-23T16:58:39.254Z,28.38
2023-03-23T17:01:09.059Z,34.33
2023-03-23T17:03:37.609Z,28.25
2023-03-23T17:06:06.350Z,19.95
2023-03-23T17:08:36.168Z,15.07
2023-03-23T17:11:04.544Z,13.82
2023-03-23T17:13:32.985Z,14.55
2023-03-23T17:16:01.538Z,11.63
2023-03-23T17:18:29.957Z,12.32
2023-03-23T17:20:58.397Z,11.68
2023-03-23T17:23:26.828Z,13.07
2023-03-23T17:25:56.610Z,12.35
2023-03-23T17:28:25.076Z,11.60
2023-03-23T17:30:54.169Z,13.77
2023-03-23T17:33:22.564Z,13.05
2023-03-23T17:35:52.538Z,12.25
2023-03-23T17:38:21.027Z,14.63
2023-03-23T17:40:49.496Z,12.43
2023-03-23T17:43:19.391Z,14.70
2023-03-23T17:45:47.971Z,17.65
2023-03-23T17:48:16.639Z,22.77
2023-03-23T17:50:48.266Z,31.30
2023-03-23T17:53:18.539Z,31.67
2023-03-23T17:55:46.956Z,34.88
2023-03-23T17:58:15.789Z,33.88
2023-03-23T18:00:45.733Z,35.42
2023-03-23T18:03:14.229Z,34.53
2023-03-23T18:05:42.836Z,39.43
2023-03-23T18:08:12.221Z,38.30
2023-03-23T18:10:41.342Z,37.37
2023-03-23T18:13:10.413Z,43.20
2023-03-23T18:15:38.848Z,42.23
2023-03-23T18:18:08.721Z,42.57
2023-03-23T18:20:37.138Z,42.67
2023-03-23T18:23:06.924Z,42.00
2023-03-23T18:25:35.376Z,40.83
2023-03-23T18:28:04.412Z,44.70
2023-03-23T18:30:34.570Z,45.07
2023-03-23T18:33:03.074Z,44.17
2023-03-23T18:35:33.302Z,43.27
2023-03-23T18:38:02.272Z,46.27
2023-03-23T18:40:30.819Z,41.87
2023-03-23T18:43:00.866Z,42.43
2023-03-23T18:45:29.535Z,43.57
2023-03-23T18:47:57.931Z,43.90
2023-03-23T18:50:26.331Z,42.80
2023-03-23T18:52:56.129Z,48.37
2023-03-23T18:55:24.852Z,42.53
2023-03-23T18:57:53.268Z,44.67
2023-03-23T19:00:21.783Z,46.50
2023-03-23T19:02:51.955Z,41.83
2023-03-23T19:05:21.291Z,42.80
2023-03-23T19:07:49.691Z,44.13
2023-03-23T19:10:20.896Z,44.17
2023-03-23T19:12:49.313Z,45.13
2023-03-23T19:15:18.234Z,44.10
2023-03-23T19:17:47.054Z,43.93
2023-03-23T19:20:26.910Z,43.10
2023-03-23T19:23:03.927Z,44.30
2023-03-23T19:25:33.726Z,41.90
2023-03-23T19:30:33.750Z,46.50
2023-03-23T19:33:02.325Z,46.53
2023-03-23T19:35:30.775Z,46.70
2023-03-23T19:37:59.184Z,49.67
2023-03-23T19:40:39.122Z,48.87
2023-03-23T19:43:11.401Z,43.37
2023-03-23T19:45:42.072Z,43.10
2023-03-23T19:48:10.699Z,44.43
2023-03-23T19:50:40.691Z,44.90
2023-03-23T19:53:09.694Z,45.00
2023-03-23T19:55:38.483Z,41.47
2023-03-23T19:58:06.882Z,47.07
2023-03-23T20:00:36.977Z,44.53
2023-03-23T20:03:05.598Z,42.43
2023-03-23T20:05:35.207Z,44.87
2023-03-23T20:08:04.733Z,46.50
2023-03-23T20:10:34.596Z,43.70
2023-03-23T20:13:03.083Z,44.27
2023-03-23T20:15:32.024Z,42.83
2023-03-23T20:18:02.369Z,43.87
2023-03-23T20:20:30.840Z,43.37
2023-03-23T20:22:59.279Z,43.90
2023-03-23T20:25:28.180Z,46.10
2023-03-23T20:27:57.604Z,43.17
2023-03-23T20:30:26.019Z,44.70
2023-03-23T20:32:58.123Z,43.43
2023-03-23T20:35:29.401Z,42.60
2023-03-23T20:37:57.781Z,43.80
2023-03-23T20:40:26.274Z,46.47
2023-03-23T20:42:54.813Z,45.67
2023-03-23T20:45:23.862Z,45.43
2023-03-23T20:47:53.692Z,43.27
2023-03-23T20:50:22.429Z,43.07
2023-03-23T20:52:52.213Z,44.67
2023-03-23T20:55:20.624Z,47.53
2023-03-23T20:57:49.410Z,49.47
2023-03-23T21:00:18.299Z,49.03
2023-03-23T21:02:49.667Z,52.03
2023-03-23T21:05:18.306Z,50.37
2023-03-23T21:07:46.798Z,50.03
2023-03-23T21:10:16.797Z,47.07
2023-03-23T21:12:45.379Z,51.47
2023-03-23T21:15:14.092Z,52.03
2023-03-23T21:17:42.484Z,50.73
2023-03-23T21:20:11.632Z,53.23
2023-03-23T21:22:40.078Z,52.50
2023-03-23T21:25:10.049Z,49.80
2023-03-23T21:27:39.949Z,49.13
2023-03-23T21:30:09.380Z,47.83
2023-03-23T21:32:37.838Z,51.37
2023-03-23T21:35:06.579Z,50.13
2023-03-23T21:37:35.008Z,55.40
2023-03-23T21:40:04.379Z,54.53
2023-03-23T21:42:33.006Z,54.13
2023-03-23T21:45:03.133Z,55.23
2023-03-23T21:47:31.889Z,53.73
2023-03-23T21:50:00.663Z,53.13
2023-03-23T21:52:30.907Z,51.80
2023-03-23T21:54:59.539Z,52.83
2023-03-23T21:57:28.940Z,52.37
2023-03-23T21:59:57.311Z,53.50
2023-03-23T22:02:27.463Z,49.93
2023-03-23T22:04:56.965Z,48.13
2023-03-23T22:07:26.059Z,53.63
2023-03-23T22:09:54.564Z,53.20
2023-03-23T22:12:23.177Z,57.80
2023-03-23T22:14:51.667Z,54.40
2023-03-23T22:17:20.404Z,55.33
2023-03-23T22:19:51.852Z,58.77
2023-03-23T22:22:21.167Z,61.00
2023-03-23T22:24:49.722Z,60.90
2023-03-23T22:27:18.399Z,59.83
2023-03-23T22:29:46.924Z,58.27
2023-03-23T22:32:15.453Z,62.67
2023-03-23T22:34:44.001Z,64.93
2023-03-23T22:37:13.894Z,61.03
2023-03-23T22:39:42.504Z,62.50
2023-03-23T22:42:12.462Z,60.03
2023-03-23T22:44:42.009Z,60.10
2023-03-23T22:47:10.486Z,61.97
2023-03-23T22:49:39.133Z,55.57
2023-03-23T22:52:07.627Z,60.90
2023-03-23T22:54:37.517Z,62.60
2023-03-23T22:57:06.146Z,63.17
2023-03-23T22:59:35.134Z,60.43
2023-03-23T23:02:03.619Z,62.70
2023-03-23T23:04:33.151Z,62.33
2023-03-23T23:07:12.098Z,62.97
2023-03-23T23:09:43.208Z,59.90
2023-03-23T23:12:11.782Z,62.77
2023-03-23T23:14:40.484Z,60.50
2023-03-23T23:17:08.976Z,63.10
2023-03-23T23:19:37.632Z,62.40
2023-03-23T23:22:18.306Z,60.80
2023-03-23T23:24:48.718Z,62.83
2023-03-23T23:27:18.076Z,65.70
2023-03-23T23:29:47.145Z,66.80
2023-03-23T23:32:15.663Z,65.50
2023-03-23T23:34:44.136Z,68.47
2023-03-23T23:37:12.624Z,66.50
2023-03-23T23:39:41.422Z,67.07
2023-03-23T23:42:14.098Z,72.23
2023-03-23T23:44:43.329Z,73.87
2023-03-23T23:47:12.534Z,75.23
2023-03-23T23:49:41.206Z,71.77
2023-03-23T23:52:10.343Z,74.20
2023-03-23T23:54:42.590Z,76.53
2023-03-23T23:57:12.536Z,74.87
2023-03-23T23:59:41.390Z,72.80
